Preston, Minnesota
Current Conditions -  °F | °C
As of 5:15 PM on Wednesday 17 Dec 2014 (Local Time) from KFKA Reporting Station
Broken Clouds Broken Clouds  
Wind Chill:   Ceiling: 1500
Heat Index: 16°   Visibility: 10mi
Dew Point: 13°   Wind: 6mph
Humidity: 85%   Direction: 30°NNE
Pressure: 30.26"   Gusts: NA
Location:  43.67°N, 92.08°W
Report Text: KFKA 172315Z AUTO 03005KT 10SM BKN015 M09/M11 A3026 RMK AO2 T10871108
Loading
Personal Weather Stations






























Interactive Weather Map New forecast layout! Learn more

10-Day Weather Forecast

Advertisements
Track Severe Weather on mobile